Time;durP1;ratioP1;P1;durP2;ratioP2;P2;SDS_P1;SDS_P2;PMS_P1;PMS_P2;Temp;Humidity;BMP_temperature;BMP_pressure;BME280_temperature;BME280_humidity;BME280_pressure;Samples;Min_cycle;Max_cycle;Signal;HPM_P1;HPM_P2
2022/10/19 05:05:13;;;;;;;3.28;2.30;;;;;;;9.05;100.00;102831.25;6393168;22;20091;-74
2022/10/19 05:07:39;;;;;;;15.45;2.92;;;;;;;9.15;100.00;102836.56;6394037;22;20504;-74
2022/10/19 05:10:06;;;;;;;7.10;2.50;;;;;;;9.10;100.00;102814.34;6389046;22;20037;-74
2022/10/19 05:15:04;;;;;;;5.18;2.30;;;;;;;9.08;100.00;102838.16;6360336;22;20027;-74
2022/10/19 05:17:30;;;;;;;3.92;2.78;;;;;;;9.07;100.00;102837.34;6360945;22;20031;-74
2022/10/19 05:19:56;;;;;;;3.70;2.42;;;;;;;9.04;100.00;102831.56;6335568;22;20455;-76
2022/10/19 05:22:21;;;;;;;7.00;2.88;;;;;;;9.08;100.00;102838.16;6335131;22;20018;-74
2022/10/19 05:24:47;;;;;;;7.88;3.20;;;;;;;9.07;100.00;102842.13;6337787;22;20034;-74
2022/10/19 05:27:12;;;;;;;5.32;2.50;;;;;;;9.06;100.00;102837.66;6364491;22;20006;-74
2022/10/19 05:29:37;;;;;;;7.88;2.50;;;;;;;9.05;100.00;102845.22;6363938;22;20002;-74
2022/10/19 05:32:03;;;;;;;6.07;2.30;;;;;;;9.01;100.00;102844.22;6362730;22;19998;-75
2022/10/19 05:34:28;;;;;;;2.72;2.20;;;;;;;9.06;100.00;102835.69;6361798;22;20036;-74
2022/10/19 05:36:54;;;;;;;4.80;3.08;;;;;;;9.05;100.00;102838.81;6363074;22;20002;-74
2022/10/19 05:39:19;;;;;;;6.25;2.78;;;;;;;9.06;100.00;102835.69;6359266;22;20009;-74
2022/10/19 05:41:46;;;;;;;7.40;2.88;;;;;;;9.03;100.00;102841.91;6331107;22;20062;-74
2022/10/19 05:44:20;;;;;;;3.95;2.13;;;;;;;9.09;100.00;102846.22;6362200;22;20371;-74
2022/10/19 05:46:46;;;;;;;3.55;2.58;;;;;;;9.06;100.00;102838.47;6358405;22;20006;-74
2022/10/19 05:49:13;;;;;;;4.50;2.45;;;;;;;9.12;100.00;102848.38;6357292;22;20002;-74
2022/10/19 05:51:39;;;;;;;5.78;2.30;;;;;;;9.13;100.00;102841.66;6358778;22;20081;-74
2022/10/19 05:54:05;;;;;;;4.28;2.20;;;;;;;9.11;100.00;102841.16;6360464;22;20030;-74
2022/10/19 05:56:31;;;;;;;4.47;2.60;;;;;;;9.10;100.00;102838.66;6359991;22;19998;-74
2022/10/19 05:58:58;;;;;;;4.97;3.05;;;;;;;9.11;100.00;102846.75;6361856;22;20007;-74
2022/10/19 06:01:24;;;;;;;7.25;2.63;;;;;;;9.12;100.00;102856.75;6358068;22;20456;-74
2022/10/19 06:03:51;;;;;;;7.80;2.83;;;;;;;9.15;100.00;102860.91;6357378;22;20411;-74
2022/10/19 06:06:18;;;;;;;3.45;2.75;;;;;;;9.15;100.00;102860.91;6361157;22;20002;-74
2022/10/19 06:08:43;;;;;;;6.95;2.70;;;;;;;9.19;100.00;102861.06;6357601;22;20081;-75
2022/10/19 06:11:11;;;;;;;4.28;2.72;;;;;;;9.20;100.00;102857.16;6362295;22;20033;-75
2022/10/19 06:13:38;;;;;;;6.63;2.53;;;;;;;9.17;100.00;102861.41;6356650;22;20014;-75
2022/10/19 06:16:04;;;;;;;4.53;2.50;;;;;;;9.24;100.00;102860.94;6358677;22;20678;-74
2022/10/19 06:18:30;;;;;;;4.82;2.65;;;;;;;9.22;100.00;102869.66;6359287;22;20013;-74
2022/10/19 06:21:01;;;;;;;6.50;2.88;;;;;;;9.18;100.00;102873.41;6358642;22;20006;-74
2022/10/19 06:23:26;;;;;;;5.93;3.20;;;;;;;9.23;100.00;102873.25;6358415;22;20434;-75
2022/10/19 06:25:51;;;;;;;3.95;1.88;;;;;;;9.25;100.00;102865.38;6359893;22;20010;-75
2022/10/19 06:28:17;;;;;;;5.82;3.03;;;;;;;9.27;100.00;102863.09;6354309;22;20430;-75
2022/10/19 06:30:42;;;;;;;7.10;2.38;;;;;;;9.27;100.00;102863.09;6325408;22;20063;-75
2022/10/19 06:33:07;;;;;;;5.38;3.03;;;;;;;9.30;100.00;102862.47;6355634;22;19999;-75
2022/10/19 06:35:33;;;;;;;5.22;3.13;;;;;;;9.22;100.00;102863.25;6335380;22;20032;-75
2022/10/19 06:37:59;;;;;;;8.65;2.80;;;;;;;9.30;100.00;102866.06;6363023;22;20002;-76
2022/10/19 06:40:24;;;;;;;4.95;2.50;;;;;;;9.29;100.00;102872.78;6357479;22;20221;-75
2022/10/19 06:42:50;;;;;;;4.43;2.70;;;;;;;9.31;100.00;102869.69;6360751;22;20006;-75
2022/10/19 06:45:16;;;;;;;6.05;2.40;;;;;;;9.39;100.00;102870.88;6363194;22;20002;-75
2022/10/19 06:47:41;;;;;;;3.58;2.30;;;;;;;9.39;100.00;102870.88;6358952;22;20070;-75
2022/10/19 06:50:07;;;;;;;5.53;2.60;;;;;;;9.32;100.00;102865.75;6332032;22;20062;-76
2022/10/19 06:52:33;;;;;;;7.80;2.92;;;;;;;9.41;100.00;102872.22;6331613;22;20025;-74
2022/10/19 06:54:59;;;;;;;4.63;2.90;;;;;;;9.45;100.00;102873.22;6361221;22;20014;-76
2022/10/19 06:57:24;;;;;;;10.93;3.28;;;;;;;9.39;100.00;102871.72;6330493;22;20089;-75
2022/10/19 06:59:50;;;;;;;4.78;2.17;;;;;;;9.43;100.00;102878.31;6361705;22;20027;-75
2022/10/19 07:02:15;;;;;;;3.75;2.30;;;;;;;9.48;100.00;102892.13;6333704;22;20502;-75
2022/10/19 07:04:40;;;;;;;5.68;2.15;;;;;;;9.50;100.00;102884.25;6360721;22;20069;-75
2022/10/19 07:07:06;;;;;;;4.50;2.38;;;;;;;9.53;100.00;102888.41;6361369;22;20009;-75
2022/10/19 07:09:31;;;;;;;5.65;2.50;;;;;;;9.55;100.00;102884.13;6362745;22;20376;-76
2022/10/19 07:11:57;;;;;;;4.68;2.75;;;;;;;9.52;100.00;102887.53;6357503;22;20013;-75
2022/10/19 07:14:23;;;;;;;6.22;3.40;;;;;;;9.54;100.00;102887.22;6356910;22;20022;-76
2022/10/19 07:16:49;;;;;;;5.18;3.00;;;;;;;9.56;100.00;102887.72;6357986;22;20400;-75
2022/10/19 07:19:15;;;;;;;5.82;3.20;;;;;;;9.60;100.00;102893.53;6362222;22;20473;-75
2022/10/19 07:21:41;;;;;;;6.20;2.90;;;;;;;9.59;100.00;102886.25;6361056;22;20078;-76
2022/10/19 07:24:07;;;;;;;9.20;2.83;;;;;;;9.64;100.00;102886.13;6360003;22;20009;-75
2022/10/19 07:26:33;;;;;;;20.48;4.22;;;;;;;9.70;100.00;102890.44;6357595;22;20002;-74
2022/10/19 07:28:58;;;;;;;8.90;5.45;;;;;;;9.76;100.00;102880.72;6354989;22;20006;-75
2022/10/19 07:31:26;;;;;;;17.60;3.58;;;;;;;9.82;100.00;102889.81;6359391;22;20002;-75
2022/10/19 07:33:56;;;;;;;11.23;3.03;;;;;;;9.65;100.00;102885.78;6328582;22;20386;-75
2022/10/19 07:36:23;;;;;;;7.97;3.88;;;;;;;9.71;100.00;102872.50;6357796;22;20010;-75
2022/10/19 07:38:48;;;;;;;6.68;3.28;;;;;;;9.63;100.00;102873.28;6329858;22;20008;-75
2022/10/19 07:41:16;;;;;;;9.38;4.07;;;;;;;9.75;100.00;102881.91;6356601;22;20010;-76
2022/10/19 07:43:43;;;;;;;8.40;3.83;;;;;;;9.74;100.00;102871.88;6361006;22;20037;-75
2022/10/19 07:46:13;;;;;;;10.40;3.72;;;;;;;9.78;100.00;102878.44;6361953;22;19998;-75
2022/10/19 07:48:38;;;;;;;13.20;3.88;;;;;;;9.82;100.00;102885.03;6332896;22;20003;-75
2022/10/19 07:51:05;;;;;;;12.65;3.85;;;;;;;9.76;100.00;102887.16;6360536;22;20010;-74
2022/10/19 07:53:31;;;;;;;9.70;3.22;;;;;;;9.59;100.00;102875.91;6359587;22;20073;-75
2022/10/19 07:56:09;;;;;;;8.60;2.95;;;;;;;9.61;100.00;102878.38;6363446;22;20033;-75
2022/10/19 07:58:35;;;;;;;10.95;3.45;;;;;;;9.57;100.00;102872.59;6363732;22;20006;-74
2022/10/19 08:01:13;;;;;;;4.47;2.83;;;;;;;9.62;100.00;102878.06;6336624;22;20028;-75
2022/10/19 08:03:38;;;;;;;5.63;3.00;;;;;;;9.76;100.00;102875.13;6335888;22;20333;-76
2022/10/19 08:06:10;;;;;;;12.93;3.42;;;;;;;9.74;100.00;102874.66;6365984;22;20008;-75
2022/10/19 08:08:35;;;;;;;9.25;3.33;;;;;;;9.72;100.00;102874.97;6362662;22;19986;-74
2022/10/19 08:11:13;;;;;;;10.00;2.80;;;;;;;9.75;100.00;102868.72;6363613;22;20421;-74
2022/10/19 08:13:39;;;;;;;8.40;4.03;;;;;;;9.79;100.00;102868.09;6335357;22;20345;-75
2022/10/19 08:16:05;;;;;;;7.38;2.85;;;;;;;9.79;100.00;102877.31;6368829;22;20026;-75
2022/10/19 08:18:31;;;;;;;10.52;3.25;;;;;;;9.81;100.00;102882.59;6336470;22;20013;-75
2022/10/19 08:20:56;;;;;;;8.98;2.70;;;;;;;9.92;100.00;102876.34;6362631;22;20002;-75
2022/10/19 08:23:22;;;;;;;7.63;3.88;;;;;;;9.93;100.00;102883.59;6361719;22;20334;-75
2022/10/19 08:25:48;;;;;;;10.30;3.92;;;;;;;9.95;100.00;102883.25;6363282;22;20076;-75
2022/10/19 08:28:14;;;;;;;14.80;3.72;;;;;;;10.05;100.00;102882.16;6362442;22;19998;-75
2022/10/19 08:30:39;;;;;;;8.73;4.25;;;;;;;10.01;100.00;102878.34;6337160;22;20071;-75
2022/10/19 08:33:07;;;;;;;13.65;4.57;;;;;;;10.03;100.00;102874.06;6361176;22;20322;-75
2022/10/19 08:35:33;;;;;;;11.15;3.75;;;;;;;10.13;100.00;102878.53;6363360;22;20055;-75
2022/10/19 08:37:59;;;;;;;15.25;4.53;;;;;;;10.21;100.00;102891.75;6363331;22;20002;-75
2022/10/19 08:40:29;;;;;;;16.75;3.75;;;;;;;10.23;100.00;102895.03;6336086;22;20082;-75
2022/10/19 08:43:11;;;;;;;9.52;3.38;;;;;;;10.24;100.00;102890.25;6364732;22;20390;-75
2022/10/19 08:46:09;;;;;;;8.20;3.60;;;;;;;10.27;100.00;102896.03;6363270;22;20060;-75
2022/10/19 08:48:38;;;;;;;9.68;4.28;;;;;;;10.27;100.00;102898.84;6353619;22;20485;-75
2022/10/19 08:51:04;;;;;;;14.60;4.00;;;;;;;10.38;100.00;102894.59;6363082;22;20433;-75
2022/10/19 08:53:40;;;;;;;16.75;4.45;;;;;;;10.55;100.00;102895.75;6365200;22;20002;-75
2022/10/19 08:56:11;;;;;;;12.10;3.50;;;;;;;10.63;100.00;102892.16;6364509;22;19998;-75
2022/10/19 08:59:05;;;;;;;9.65;3.65;;;;;;;10.63;100.00;102886.53;6331422;22;20460;-75
2022/10/19 09:01:53;;;;;;;14.63;3.72;;;;;;;10.64;100.00;102887.34;6335179;22;20002;-75
2022/10/19 09:04:30;;;;;;;11.63;3.80;;;;;;;10.74;100.00;102878.63;6335727;22;20006;-75
2022/10/19 09:07:14;;;;;;;15.45;4.03;;;;;;;10.72;100.00;102878.94;6363272;22;20051;-75
2022/10/19 09:09:49;;;;;;;13.35;4.22;;;;;;;10.74;100.00;102881.44;6364070;22;20078;-75
2022/10/19 09:12:30;;;;;;;12.23;2.90;;;;;;;10.74;100.00;102882.25;6362966;22;20437;-74
2022/10/19 09:15:11;;;;;;;8.23;3.50;;;;;;;10.84;100.00;102881.09;6362612;22;20018;-75
2022/10/19 09:17:37;;;;;;;17.80;4.15;;;;;;;10.90;100.00;102879.78;6332178;22;20030;-75
2022/10/19 09:20:18;;;;;;;13.02;3.58;;;;;;;10.91;100.00;102884.22;6361428;22;19998;-75
2022/10/19 09:22:45;;;;;;;10.57;3.28;;;;;;;10.92;100.00;102871.88;6364477;22;20007;-75
2022/10/19 09:25:18;;;;;;;10.18;2.90;;;;;;;10.92;100.00;102862.63;6363437;22;20006;-75
2022/10/19 09:27:47;;;;;;;14.10;3.13;;;;;;;10.95;100.00;102859.16;6363108;22;20081;-75
2022/10/19 09:30:21;;;;;;;11.90;3.15;;;;;;;10.92;100.00;102855.06;6335827;22;20002;-75
2022/10/19 09:32:52;;;;;;;11.65;2.60;;;;;;;10.93;100.00;102855.88;6332090;22;19998;-75
2022/10/19 09:35:29;;;;;;;15.00;3.65;;;;;;;11.01;98.80;102854.22;6362633;22;20034;-75
2022/10/19 09:37:55;;;;;;;14.05;3.65;;;;;;;11.04;97.47;102856.34;6364206;22;20006;-75
2022/10/19 09:40:27;;;;;;;8.15;2.45;;;;;;;11.01;97.22;102851.41;6334395;22;20059;-75
2022/10/19 09:42:57;;;;;;;11.32;3.22;;;;;;;11.04;97.30;102834.75;6362770;22;20381;-75
2022/10/19 09:45:44;;;;;;;15.20;2.85;;;;;;;11.13;95.00;102832.75;6362509;22;20006;-75
2022/10/19 09:48:26;;;;;;;8.95;3.05;;;;;;;11.27;95.01;102829.72;6363766;22;20036;-75
2022/10/19 09:50:58;;;;;;;12.50;2.25;;;;;;;11.22;92.92;102834.72;6333901;22;20334;-75
2022/10/19 09:53:25;;;;;;;10.70;1.90;;;;;;;11.15;90.34;102830.44;6361948;22;19998;-74
2022/10/19 09:55:57;;;;;;;12.13;2.90;;;;;;;11.18;90.59;102828.94;6363597;22;20024;-75
2022/10/19 09:58:28;;;;;;;12.10;2.78;;;;;;;11.24;89.54;102822.00;6362123;22;20434;-74
2022/10/19 10:00:56;;;;;;;9.82;2.67;;;;;;;11.26;90.22;102830.06;6362474;22;20445;-75
2022/10/19 10:03:39;;;;;;;12.98;2.58;;;;;;;11.33;89.20;102831.19;6361701;22;20059;-74
2022/10/19 10:06:14;;;;;;;;;;;;;;;11.35;88.52;102822.44;6358377;22;20102;-76
2022/10/19 10:08:49;;;;;;;14.82;2.65;;;;;;;11.36;89.54;102822.13;6361972;22;19909;-74
2022/10/19 10:11:37;;;;;;;10.48;2.90;;;;;;;11.33;90.13;102819.16;6362274;22;20075;-76
2022/10/19 10:14:19;;;;;;;14.23;2.88;;;;;;;11.54;88.95;102822.84;6332618;22;20018;-75
2022/10/19 10:16:45;;;;;;;11.43;2.25;;;;;;;11.53;89.42;102815.63;6359987;22;20423;-74
2022/10/19 10:19:14;;;;;;;8.93;2.65;;;;;;;11.58;86.96;102814.59;6360495;22;20002;-75
2022/10/19 10:21:54;;;;;;;13.63;2.13;;;;;;;11.64;88.42;102812.41;6362368;22;20322;-74
2022/10/19 10:24:22;;;;;;;11.45;2.25;;;;;;;11.67;84.58;102817.34;6362633;22;20002;-75
2022/10/19 10:26:53;;;;;;;9.00;1.98;;;;;;;11.75;86.43;102814.50;6333107;22;20274;-75
2022/10/19 10:29:25;;;;;;;13.60;2.20;;;;;;;11.74;85.21;102806.41;6361435;22;20083;-75
2022/10/19 10:31:52;;;;;;;11.77;3.00;;;;;;;11.78;85.62;102810.19;6336328;22;20059;-75
2022/10/19 10:34:32;;;;;;;6.72;2.25;;;;;;;11.79;85.48;102817.47;6365811;22;20071;-75
2022/10/19 10:36:57;;;;;;;8.02;1.90;;;;;;;11.93;83.12;102823.69;6367157;22;20077;-75
2022/10/19 10:39:27;;;;;;;12.55;2.95;;;;;;;11.89;84.42;102819.91;6367822;22;20456;-75
2022/10/19 10:41:54;;;;;;;14.32;3.25;;;;;;;11.82;82.34;102805.53;6366881;22;20089;-74
2022/10/19 10:44:28;;;;;;;17.35;2.35;;;;;;;11.68;83.78;102802.16;6337996;22;20081;-75
2022/10/19 10:47:02;;;;;;;10.63;2.65;;;;;;;11.86;82.47;102802.88;6364897;22;20461;-76
2022/10/19 10:49:37;;;;;;;8.80;1.83;;;;;;;11.86;83.99;102806.50;6366546;22;20503;-75
2022/10/19 10:52:09;;;;;;;7.68;2.42;;;;;;;11.96;82.30;102799.72;6365404;22;20406;-75
2022/10/19 10:54:34;;;;;;;12.18;2.65;;;;;;;12.11;82.09;102792.66;6338196;22;20086;-75
2022/10/19 10:57:32;;;;;;;14.35;2.00;;;;;;;12.22;82.53;102793.91;6365887;22;20002;-75
2022/10/19 11:00:12;;;;;;;10.45;2.03;;;;;;;12.19;82.14;102783.38;6320354;22;20342;-75
2022/10/19 11:02:51;;;;;;;9.73;2.47;;;;;;;12.25;82.95;102789.56;6363049;22;20037;-75
2022/10/19 11:05:50;;;;;;;12.98;3.13;;;;;;;12.38;82.43;102780.88;6331724;22;20359;-74
2022/10/19 11:08:24;;;;;;;11.68;2.58;;;;;;;12.38;83.16;102774.44;6341642;22;20056;-75
2022/10/19 11:11:00;;;;;;;11.98;2.05;;;;;;;12.44;84.21;102763.81;6365664;22;20002;-75
2022/10/19 11:13:36;;;;;;;12.65;2.83;;;;;;;12.63;80.88;102764.13;6337870;22;20010;-75
2022/10/19 11:16:11;;;;;;;9.48;2.67;;;;;;;12.53;81.34;102758.94;6363887;22;20005;-75
2022/10/19 11:18:51;;;;;;;10.57;2.63;;;;;;;12.62;80.80;102756.84;6363319;22;20005;-75
2022/10/19 11:21:30;;;;;;;13.65;2.85;;;;;;;12.63;78.88;102747.28;6365516;22;20010;-74
2022/10/19 11:24:30;;;;;;;10.98;2.38;;;;;;;12.69;81.19;102754.31;6363888;22;20063;-75
2022/10/19 11:27:30;;;;;;;10.52;1.83;;;;;;;12.84;80.36;102754.81;6344012;22;20040;-74
2022/10/19 11:30:19;;;;;;;13.10;2.35;;;;;;;12.68;80.82;102749.03;6365738;22;20291;-74
2022/10/19 11:32:55;;;;;;;14.07;2.67;;;;;;;12.56;81.56;102741.38;6364440;22;20002;-76
2022/10/19 11:35:36;;;;;;;9.57;2.72;;;;;;;12.71;81.01;102731.47;6363071;22;20007;-75
2022/10/19 11:38:19;;;;;;;11.27;1.95;;;;;;;12.71;81.15;102723.88;6362250;22;20026;-75
2022/10/19 11:41:03;;;;;;;11.27;2.47;;;;;;;12.87;77.95;102723.22;6362327;22;20059;-75
2022/10/19 11:43:38;;;;;;;13.32;2.45;;;;;;;12.82;78.61;102716.66;6361938;22;20009;-75
2022/10/19 11:46:16;;;;;;;15.88;1.98;;;;;;;12.92;78.43;102720.16;6335953;22;20002;-75
2022/10/19 11:49:02;;;;;;;8.60;2.35;;;;;;;12.86;78.49;102713.97;6334518;22;19994;-75
2022/10/19 11:51:45;;;;;;;14.02;2.35;;;;;;;12.95;79.46;102702.59;6336864;22;20014;-75
2022/10/19 11:54:39;;;;;;;9.52;2.20;;;;;;;12.88;80.13;102707.97;6331237;22;20013;-74
2022/10/19 11:57:24;;;;;;;6.80;2.13;;;;;;;12.91;78.41;102682.00;6361499;22;20028;-75
2022/10/19 12:00:15;;;;;;;10.40;2.33;;;;;;;12.84;79.44;102684.53;6361768;22;20006;-75
2022/10/19 12:02:43;;;;;;;19.63;3.30;;;;;;;12.97;80.39;102675.78;6361105;22;20009;-75
2022/10/19 12:05:15;;;;;;;10.50;2.17;;;;;;;12.90;78.68;102677.53;6364691;22;20036;-75
2022/10/19 12:07:55;;;;;;;8.85;2.38;;;;;;;12.91;79.83;102673.56;6365149;22;20012;-75
2022/10/19 12:10:38;;;;;;;7.25;1.88;;;;;;;12.99;79.57;102661.38;6364270;22;20032;-75
2022/10/19 12:13:09;;;;;;;15.10;3.95;;;;;;;12.99;78.12;102658.56;6361251;22;20495;-75
2022/10/19 12:15:39;;;;;;;9.77;2.28;;;;;;;12.94;79.37;102650.38;6359290;22;20006;-76
2022/10/19 12:18:14;;;;;;;14.05;3.35;;;;;;;13.00;77.74;102646.97;6359022;22;20426;-75
2022/10/19 12:21:01;;;;;;;10.82;3.35;;;;;;;13.09;78.11;102635.63;6360640;22;20002;-75
2022/10/19 12:23:33;;;;;;;9.57;2.50;;;;;;;13.35;77.68;102631.63;6358491;22;20253;-75
2022/10/19 12:26:01;;;;;;;10.60;2.42;;;;;;;13.46;77.73;102631.97;6333721;22;20075;-75
2022/10/19 12:28:30;;;;;;;10.98;2.45;;;;;;;13.58;78.39;102631.94;6356098;22;20013;-74
2022/10/19 12:30:57;;;;;;;12.48;2.90;;;;;;;13.47;76.20;102627.97;6331623;22;20452;-74
2022/10/19 12:33:41;;;;;;;5.78;2.35;;;;;;;13.48;75.59;102621.16;6357986;22;20010;-75
2022/10/19 12:36:12;;;;;;;11.98;2.65;;;;;;;13.45;75.54;102616.25;6356329;22;20002;-74
2022/10/19 12:38:59;;;;;;;18.50;3.20;;;;;;;13.46;75.44;102599.00;6328337;22;20013;-75
2022/10/19 12:42:00;;;;;;;9.90;2.70;;;;;;;13.32;79.24;102604.19;6358506;22;20073;-74
2022/10/19 12:44:31;;;;;;;19.00;3.50;;;;;;;13.51;74.81;102590.31;6359815;22;20010;-75
2022/10/19 12:47:09;;;;;;;8.15;2.40;;;;;;;13.58;75.28;102590.53;6361257;22;19998;-74
2022/10/19 12:49:42;;;;;;;12.02;2.40;;;;;;;13.62;76.26;102583.03;6333150;22;20028;-75
2022/10/19 12:52:07;;;;;;;9.27;2.50;;;;;;;13.79;76.07;102584.72;6330219;22;20002;-75
2022/10/19 12:54:36;;;;;;;13.30;2.92;;;;;;;13.85;74.53;102584.44;6359534;22;20009;-75
2022/10/19 12:57:18;;;;;;;10.63;3.25;;;;;;;13.77;74.28;102577.81;6330070;22;20011;-75
2022/10/19 12:59:43;;;;;;;12.82;3.30;;;;;;;13.59;76.06;102578.09;6357105;22;20330;-74
2022/10/19 13:02:28;;;;;;;6.43;3.10;;;;;;;13.39;77.79;102576.31;6359106;22;20371;-74
2022/10/19 13:04:54;;;;;;;15.25;3.20;;;;;;;13.28;76.88;102569.50;6332688;22;20346;-75
2022/10/19 13:07:19;;;;;;;22.17;3.90;;;;;;;13.19;78.95;102556.38;6360334;22;20006;-75
2022/10/19 13:09:47;;;;;;;13.52;4.22;;;;;;;13.15;79.22;102544.22;6363122;22;20283;-74
2022/10/19 13:12:12;;;;;;;7.13;3.30;;;;;;;13.19;79.12;102550.75;6360610;22;20065;-74
2022/10/19 13:14:56;;;;;;;10.23;2.88;;;;;;;13.13;79.66;102540.94;6365160;22;20034;-75
2022/10/19 13:17:35;;;;;;;9.13;3.40;;;;;;;13.11;79.30;102534.03;6364929;22;20005;-75
2022/10/19 13:20:12;;;;;;;8.50;3.55;;;;;;;13.15;79.63;102537.78;6335739;22;20113;-74
2022/10/19 13:22:38;;;;;;;6.28;3.22;;;;;;;13.18;79.23;102523.03;6362251;22;20025;-75
2022/10/19 13:25:27;;;;;;;13.02;3.30;;;;;;;13.18;80.10;102521.03;6363811;22;20056;-75
2022/10/19 13:28:16;;;;;;;16.05;3.70;;;;;;;13.19;79.43;102524.66;6360990;22;20002;-75
2022/10/19 13:30:42;;;;;;;18.60;4.22;;;;;;;13.09;80.25;102523.16;6362854;22;19998;-74
2022/10/19 13:33:28;;;;;;;12.25;3.90;;;;;;;13.07;79.38;102519.91;6361508;22;19998;-75
2022/10/19 13:36:01;;;;;;;10.35;3.78;;;;;;;13.17;79.50;102525.00;6364918;22;20018;-75
2022/10/19 13:38:29;;;;;;;11.80;3.08;;;;;;;13.14;77.40;102517.28;6363802;22;20058;-74
2022/10/19 13:41:26;;;;;;;8.45;3.38;;;;;;;13.20;77.55;102518.69;6365861;22;20006;-76
2022/10/19 13:44:03;;;;;;;7.10;2.42;;;;;;;13.18;78.94;102520.22;6310218;22;20010;-74
2022/10/19 13:46:29;;;;;;;9.32;2.95;;;;;;;13.20;78.80;102518.69;6361801;22;20014;-75
2022/10/19 13:49:00;;;;;;;9.65;3.50;;;;;;;13.21;77.93;102513.88;6362630;22;20002;-74
2022/10/19 13:51:43;;;;;;;9.82;3.25;;;;;;;13.15;79.89;102510.47;6365964;22;20005;-76
2022/10/19 13:54:37;;;;;;;9.85;4.57;;;;;;;13.12;80.83;102501.94;6338753;22;20010;-74
2022/10/19 13:57:17;;;;;;;11.27;3.72;;;;;;;13.06;79.46;102500.56;6364847;22;20080;-75
2022/10/19 14:00:02;;;;;;;20.65;3.70;;;;;;;13.13;79.11;102503.56;6336399;22;19998;-75
2022/10/19 14:02:49;;;;;;;13.60;3.83;;;;;;;13.07;78.54;102503.03;6363199;22;19994;-74
2022/10/19 14:05:33;;;;;;;6.82;2.92;;;;;;;12.93;78.20;102491.34;6360206;22;20014;-75
2022/10/19 14:08:34;;;;;;;13.82;4.03;;;;;;;12.99;78.35;102492.75;6360798;22;20435;-75
2022/10/19 14:11:03;;;;;;;8.93;3.10;;;;;;;13.01;78.58;102490.38;6366441;22;20010;-75
2022/10/19 14:13:30;;;;;;;8.48;2.38;;;;;;;13.01;78.86;102484.78;6331730;22;20397;-75
2022/10/19 14:16:01;;;;;;;8.60;2.50;;;;;;;13.05;78.62;102474.44;6362311;22;20010;-75
2022/10/19 14:18:30;;;;;;;8.85;2.50;;;;;;;13.01;79.36;102488.38;6332961;22;20044;-75
2022/10/19 14:21:07;;;;;;;13.02;3.50;;;;;;;13.01;78.62;102491.19;6364707;22;20005;-74
2022/10/19 14:23:40;;;;;;;9.85;2.10;;;;;;;13.00;78.46;102483.13;6363782;22;20002;-75
2022/10/19 14:26:10;;;;;;;;;;;;;;;12.99;80.86;102481.50;6365143;22;20444;-74
2022/10/19 14:28:36;;;;;;;11.00;2.63;;;;;;;12.93;78.82;102485.72;6361629;22;19938;-74
2022/10/19 14:31:05;;;;;;;9.80;2.90;;;;;;;12.92;79.86;102473.66;6363929;22;20013;-74
2022/10/19 14:33:34;;;;;;;9.75;3.22;;;;;;;12.94;80.30;102482.53;6361068;22;20433;-74
2022/10/19 14:36:00;;;;;;;13.73;3.42;;;;;;;12.85;79.86;102465.00;6336268;22;20013;-74
2022/10/19 14:38:35;;;;;;;9.85;2.80;;;;;;;12.86;79.93;102465.81;6363350;22;20006;-74
2022/10/19 14:41:03;;;;;;;17.63;4.50;;;;;;;12.81;80.84;102459.25;6363683;22;20018;-74
2022/10/19 14:43:31;;;;;;;9.15;3.60;;;;;;;12.84;79.90;102465.34;6362606;22;20002;-74
2022/10/19 14:46:09;;;;;;;10.90;4.45;;;;;;;12.88;79.57;102461.50;6364163;22;20005;-74
2022/10/19 14:48:40;;;;;;;10.70;3.75;;;;;;;12.82;79.62;102460.91;6359509;22;20002;-74
2022/10/19 14:51:27;;;;;;;9.18;4.03;;;;;;;12.85;79.95;102458.56;6361767;22;20002;-74
2022/10/19 14:54:05;;;;;;;12.15;5.30;;;;;;;12.78;80.30;102443.13;6362284;22;20097;-74
2022/10/19 14:56:35;;;;;;;9.70;4.90;;;;;;;12.83;80.25;102442.06;6361246;22;20002;-74
2022/10/19 14:59:11;;;;;;;7.68;4.68;;;;;;;12.85;81.41;102447.34;6360794;22;20002;-74
2022/10/19 15:01:36;;;;;;;13.07;6.07;;;;;;;12.84;81.08;102442.88;6331450;22;20006;-74
2022/10/19 15:04:03;;;;;;;11.75;5.60;;;;;;;12.85;81.18;102456.56;6359886;22;20014;-74
2022/10/19 15:06:34;;;;;;;8.60;5.32;;;;;;;12.82;79.04;102451.69;6330455;22;20033;-74
2022/10/19 15:09:04;;;;;;;12.40;5.22;;;;;;;12.80;78.81;102446.41;6356309;22;20448;-74
2022/10/19 15:11:40;;;;;;;10.82;4.57;;;;;;;12.78;79.88;102451.56;6360710;22;20002;-75
2022/10/19 15:14:11;;;;;;;9.88;5.03;;;;;;;12.74;79.49;102445.00;6361687;22;20471;-74
2022/10/19 15:16:45;;;;;;;6.55;4.50;;;;;;;12.73;79.64;102451.81;6336832;22;20006;-74
2022/10/19 15:19:17;;;;;;;9.88;5.68;;;;;;;12.73;80.43;102446.19;6360183;22;20021;-74
2022/10/19 15:21:43;;;;;;;;;;;;;;;12.72;79.87;102435.31;6361746;22;20452;-74
2022/10/19 15:24:25;;;;;;;11.02;4.20;;;;;;;12.74;80.69;102441.41;6357725;22;19906;-74
2022/10/19 15:26:52;;;;;;;9.80;5.50;;;;;;;12.66;79.86;102437.53;6330643;22;20426;-75
2022/10/19 15:29:27;;;;;;;8.07;4.40;;;;;;;12.63;79.85;102432.63;6354178;22;20013;-75
2022/10/19 15:31:55;;;;;;;13.20;5.85;;;;;;;12.57;81.63;102434.06;6359034;22;20009;-75
2022/10/19 15:34:26;;;;;;;11.60;4.60;;;;;;;12.60;81.82;102438.94;6357310;22;20006;-74
2022/10/19 15:37:02;;;;;;;11.88;5.85;;;;;;;12.91;80.78;102438.28;6335692;22;20051;-74
2022/10/19 15:39:33;;;;;;;12.38;5.15;;;;;;;12.75;81.67;102446.63;6333742;22;20058;-75
2022/10/19 15:42:36;;;;;;;9.80;5.00;;;;;;;12.71;81.71;102434.50;6361579;22;20002;-74
2022/10/19 15:45:25;;;;;;;7.72;4.38;;;;;;;12.48;81.57;102424.91;6363283;22;20009;-74
2022/10/19 15:48:08;;;;;;;9.38;4.28;;;;;;;12.36;82.50;102418.16;6343599;22;20010;-74
2022/10/19 15:50:38;;;;;;;12.02;4.82;;;;;;;12.51;84.94;102418.63;6362817;22;20002;-74
2022/10/19 15:53:03;;;;;;;9.82;4.70;;;;;;;12.33;82.33;102412.41;6358867;22;19994;-75
2022/10/19 15:55:29;;;;;;;9.35;4.45;;;;;;;12.25;83.37;102417.00;6362752;22;20016;-74
2022/10/19 15:57:59;;;;;;;8.25;4.20;;;;;;;12.35;84.15;102410.91;6335920;22;20013;-74
2022/10/19 16:00:25;;;;;;;8.93;4.22;;;;;;;12.40;86.70;102409.84;6361531;22;20002;-74
2022/10/19 16:02:51;;;;;;;11.43;4.43;;;;;;;12.44;86.98;102418.38;6358602;22;20460;-74
2022/10/19 16:05:16;;;;;;;10.35;4.85;;;;;;;12.43;86.76;102411.13;6361967;22;20007;-74
2022/10/19 16:07:41;;;;;;;14.25;5.78;;;;;;;12.43;86.25;102411.94;6360096;22;19998;-74
2022/10/19 16:10:15;;;;;;;9.95;4.57;;;;;;;12.42;86.64;102413.13;6359389;22;19998;-74
2022/10/19 16:12:40;;;;;;;8.38;5.22;;;;;;;12.41;86.98;102403.88;6360310;22;20077;-74
2022/10/19 16:15:06;;;;;;;12.30;4.82;;;;;;;12.38;87.36;102398.16;6359782;22;20393;-74
2022/10/19 16:17:31;;;;;;;8.68;4.82;;;;;;;12.37;87.36;102396.50;6327701;22;20017;-74
2022/10/19 16:19:57;;;;;;;12.30;4.78;;;;;;;12.36;87.63;102395.69;6329777;22;20059;-75
2022/10/19 16:22:22;;;;;;;12.90;4.78;;;;;;;12.34;87.95;102391.63;6358384;22;20418;-74
2022/10/19 16:24:48;;;;;;;10.05;4.60;;;;;;;12.28;88.55;102393.84;6359153;22;20496;-74
2022/10/19 16:27:15;;;;;;;11.80;4.78;;;;;;;12.25;88.17;102374.91;6359671;22;20502;-74
2022/10/19 16:29:41;;;;;;;11.73;4.53;;;;;;;12.27;87.90;102385.75;6361473;22;20005;-75
2022/10/19 16:32:07;;;;;;;11.35;3.83;;;;;;;12.23;88.59;102382.00;6359941;22;20177;-75
2022/10/19 16:34:33;;;;;;;9.65;3.95;;;;;;;12.21;88.25;102376.78;6362357;22;20441;-75
2022/10/19 16:36:58;;;;;;;16.63;4.82;;;;;;;12.16;88.72;102372.22;6335004;22;20040;-74
2022/10/19 16:39:24;;;;;;;12.18;4.25;;;;;;;12.14;88.60;102373.72;6359821;22;20005;-74
2022/10/19 16:41:49;;;;;;;9.73;5.03;;;;;;;12.07;88.46;102365.91;6361134;22;20013;-74
2022/10/19 16:44:15;;;;;;;25.73;13.30;;;;;;;12.07;88.94;102370.69;6360945;22;20006;-74
2022/10/19 16:46:40;;;;;;;21.30;14.73;;;;;;;12.03;88.57;102370.56;6357453;22;20006;-75
2022/10/19 16:49:05;;;;;;;18.15;13.48;;;;;;;11.99;89.22;102370.47;6357690;22;20002;-75
2022/10/19 16:51:43;;;;;;;23.33;15.80;;;;;;;11.95;89.04;102371.50;6356573;22;19998;-74